Time;durP1;ratioP1;P1;durP2;ratioP2;P2;SDS_P1;SDS_P2;PMS_P1;PMS_P2;Temp;Humidity;BMP_temperature;BMP_pressure;BME280_temperature;BME280_humidity;BME280_pressure;Samples;Min_cycle;Max_cycle;Signal;HPM_P1;HPM_P2
2024/05/05 00:15:06;;;;;;;6;5.1;;;;;;;;;;;;;-75
2024/05/05 00:45:10;;;;;;;7.1;4.5;;;;;;;;;;;;;-70
2024/05/05 01:15:09;;;;;;;7.9;4.5;;;;;;;;;;;;;-69
2024/05/05 01:45:10;;;;;;;4.3;3;;;;;;;;;;;;;-68
2024/05/05 02:15:12;;;;;;;7.3;5.8;;;;;;;;;;;;;-72
2024/05/05 02:45:13;;;;;;;6.7;5.6;;;;;;;;;;;;;-69
2024/05/05 03:15:14;;;;;;;8.1;6;;;;;;;;;;;;;-69
2024/05/05 03:45:15;;;;;;;9.4;7;;;;;;;;;;;;;-70
2024/05/05 04:15:16;;;;;;;8.1;6;;;;;;;;;;;;;-69
2024/05/05 04:45:17;;;;;;;10.9;7.4;;;;;;;;;;;;;-70
2024/05/05 05:15:19;;;;;;;15.8;10;;;;;;;;;;;;;-68
2024/05/05 05:45:20;;;;;;;20;13.4;;;;;;;;;;;;;-72
2024/05/05 06:15:21;;;;;;;12.3;9.1;;;;;;;;;;;;;-69
2024/05/05 06:45:22;;;;;;;6.3;4.5;;;;;;;;;;;;;-70
2024/05/05 07:15:24;;;;;;;4.8;2.9;;;;;;;;;;;;;-71
2024/05/05 07:45:26;;;;;;;3;2.1;;;;;;;;;;;;;-71
2024/05/05 08:15:28;;;;;;;1.6;0.8;;;;;;;;;;;;;-75
2024/05/05 08:45:35;;;;;;;4.8;2.5;;;;;;;;;;;;;-73
2024/05/05 09:15:33;;;;;;;5.1;3.1;;;;;;;;;;;;;-72
2024/05/05 09:45:35;;;;;;;4.7;2.7;;;;;;;;;;;;;-74
2024/05/05 10:15:40;;;;;;;5.6;3;;;;;;;;;;;;;-74
2024/05/05 10:45:40;;;;;;;3.6;2.4;;;;;;;;;;;;;-71
2024/05/05 11:15:44;;;;;;;4.2;2.3;;;;;;;;;;;;;-70
2024/05/05 11:45:47;;;;;;;6.3;3.6;;;;;;;;;;;;;-73
2024/05/05 12:15:50;;;;;;;4.5;2.6;;;;;;;;;;;;;-70
2024/05/05 13:15:57;;;;;;;2.5;1.4;;;;;;;;;;;;;-73
2024/05/05 13:46:01;;;;;;;2.4;1.6;;;;;;;;;;;;;-70
2024/05/05 14:16:05;;;;;;;2.8;1.7;;;;;;;;;;;;;-69
2024/05/05 14:46:09;;;;;;;1.8;1.1;;;;;;;;;;;;;-71
2024/05/05 15:16:13;;;;;;;2.1;1.3;;;;;;;;;;;;;-72
2024/05/05 15:46:17;;;;;;;3;2.1;;;;;;;;;;;;;-73
2024/05/05 16:16:21;;;;;;;2.2;1.4;;;;;;;;;;;;;-70
2024/05/05 16:46:24;;;;;;;3.2;1.9;;;;;;;;;;;;;-69
2024/05/05 17:16:28;;;;;;;2.5;1.8;;;;;;;;;;;;;-73
2024/05/05 17:46:32;;;;;;;2.7;1.8;;;;;;;;;;;;;-66
2024/05/05 18:16:35;;;;;;;3.7;2;;;;;;;;;;;;;-71
2024/05/05 18:46:38;;;;;;;3.1;2.1;;;;;;;;;;;;;-70
2024/05/05 19:16:41;;;;;;;4.3;2.7;;;;;;;;;;;;;-69
2024/05/05 19:46:43;;;;;;;5;3.4;;;;;;;;;;;;;-71
2024/05/05 20:16:46;;;;;;;5.2;3.4;;;;;;;;;;;;;-74
2024/05/05 20:46:47;;;;;;;6.8;4.5;;;;;;;;;;;;;-74
2024/05/05 21:16:50;;;;;;;10.5;7.1;;;;;;;;;;;;;-74
2024/05/05 21:46:51;;;;;;;19;11.8;;;;;;;;;;;;;-72
2024/05/05 22:16:54;;;;;;;9.5;7.3;;;;;;;;;;;;;-71
2024/05/05 22:46:54;;;;;;;9.9;7.4;;;;;;;;;;;;;-71
2024/05/05 23:16:56;;;;;;;12.3;8.4;;;;;;;;;;;;;-72
2024/05/05 23:46:57;;;;;;;12.4;8.2;;;;;;;;;;;;;-73
